Time;durP1;ratioP1;P1;durP2;ratioP2;P2;SDS_P1;SDS_P2;PMS_P1;PMS_P2;Temp;Humidity;BMP_temperature;BMP_pressure;BME280_temperature;BME280_humidity;BME280_pressure;Samples;Min_cycle;Max_cycle;Signal;HPM_P1;HPM_P2
2022/10/11 00:00:35;;;;;;;8.30;2.55;;;13.90;98.10;;;;;;5109658;28;20102;-66
2022/10/11 00:03:02;;;;;;;4.88;2.33;;;13.80;98.00;;;;;;5106372;28;20024;-66
2022/10/11 00:05:28;;;;;;;8.98;2.88;;;13.80;98.10;;;;;;5108968;28;20383;-66
2022/10/11 00:07:54;;;;;;;12.00;3.95;;;13.70;98.10;;;;;;5110578;28;20027;-66
2022/10/11 00:10:20;;;;;;;6.55;2.45;;;13.70;98.00;;;;;;5107665;28;20042;-66
2022/10/11 00:12:45;;;;;;;3.58;2.05;;;13.70;98.10;;;;;;5106431;28;20032;-67
2022/10/11 00:15:17;;;;;;;5.28;2.05;;;13.60;98.00;;;;;;5096137;28;20020;-67
2022/10/11 00:17:43;;;;;;;7.32;2.72;;;13.60;98.10;;;;;;5079653;28;20099;-67
2022/10/11 00:20:09;;;;;;;4.38;2.47;;;13.50;98.10;;;;;;5105731;28;20032;-67
2022/10/11 00:22:36;;;;;;;5.80;2.38;;;13.50;98.10;;;;;;5113367;28;20080;-66
2022/10/11 00:25:02;;;;;;;4.78;2.28;;;13.50;98.00;;;;;;5104024;28;20517;-66
2022/10/11 00:27:28;;;;;;;4.07;2.13;;;13.50;98.10;;;;;;5113362;28;20065;-67
2022/10/11 00:29:53;;;;;;;4.93;2.20;;;13.40;98.00;;;;;;5098431;28;20502;-66
2022/10/11 00:32:20;;;;;;;7.43;2.35;;;13.40;98.00;;;;;;5109164;28;20119;-66
2022/10/11 00:34:46;;;;;;;6.32;2.10;;;13.40;98.00;;;;;;5093128;28;20507;-66
2022/10/11 00:37:11;;;;;;;7.00;2.42;;;13.40;98.00;;;;;;5075502;28;20107;-67
2022/10/11 00:39:37;;;;;;;7.10;2.40;;;13.30;98.00;;;;;;5097965;28;20082;-67
2022/10/11 00:42:03;;;;;;;5.45;2.05;;;13.30;98.10;;;;;;5092157;28;20055;-66
2022/10/11 00:44:31;;;;;;;7.43;2.05;;;13.30;98.10;;;;;;5097927;28;20161;-67
2022/10/11 00:47:09;;;;;;;6.57;2.30;;;13.20;98.10;;;;;;5113209;28;20079;-66
2022/10/11 00:49:39;;;;;;;6.95;2.65;;;13.20;98.10;;;;;;5107479;28;20581;-66
2022/10/11 00:52:11;;;;;;;5.72;2.05;;;13.20;98.00;;;;;;5112848;28;20491;-66
2022/10/11 00:54:39;;;;;;;5.43;1.88;;;13.10;98.10;;;;;;5101630;28;20076;-67
2022/10/11 00:57:10;;;;;;;9.65;2.10;;;13.00;98.10;;;;;;5102792;28;20028;-67
2022/10/11 00:59:40;;;;;;;6.05;2.28;;;13.00;98.10;;;;;;5105991;28;20052;-67
2022/10/11 01:02:08;;;;;;;8.13;3.40;;;13.00;98.10;;;;;;5104060;28;20115;-67
2022/10/11 01:04:34;;;;;;;7.30;2.50;;;12.90;98.20;;;;;;5091014;28;20035;-67
2022/10/11 01:07:01;;;;;;;5.85;2.42;;;12.90;98.20;;;;;;5090888;28;20024;-67
2022/10/11 01:09:29;;;;;;;5.00;2.35;;;12.80;98.20;;;;;;5091890;28;20031;-67
2022/10/11 01:11:58;;;;;;;5.40;2.20;;;12.80;98.30;;;;;;5090168;28;20035;-67
2022/10/11 01:14:33;;;;;;;8.32;2.40;;;12.80;98.30;;;;;;5090177;28;20016;-67
2022/10/11 01:17:09;;;;;;;8.60;2.60;;;12.80;98.40;;;;;;5094991;28;20030;-67
2022/10/11 01:20:21;;;;;;;7.53;2.10;;;12.80;98.40;;;;;;5095241;28;20031;-67
2022/10/11 01:22:57;;;;;;;11.55;2.55;;;12.80;98.30;;;;;;5055820;28;20055;-67
2022/10/11 01:25:38;;;;;;;10.30;2.35;;;12.80;98.30;;;;;;5107602;28;20084;-67
2022/10/11 01:28:38;;;;;;;5.60;2.53;;;12.70;98.40;;;;;;5104247;28;20029;-67
2022/10/11 01:31:14;;;;;;;4.93;2.45;;;12.70;98.50;;;;;;5095772;28;20039;-66
2022/10/11 01:34:05;;;;;;;10.57;2.25;;;12.60;98.60;;;;;;5108705;28;20104;-67
2022/10/11 01:36:33;;;;;;;10.35;2.42;;;12.60;98.60;;;;;;5091508;28;20028;-67
2022/10/11 01:39:41;;;;;;;8.15;2.65;;;12.60;98.60;;;;;;5111683;28;20024;-67
2022/10/11 01:42:10;;;;;;;7.43;2.42;;;12.60;98.70;;;;;;5084173;28;20042;-67
2022/10/11 01:44:38;;;;;;;5.30;2.22;;;12.60;98.70;;;;;;5108541;28;20051;-67
2022/10/11 01:47:04;;;;;;;5.80;2.60;;;12.60;98.80;;;;;;5093978;28;20019;-66
2022/10/11 01:49:30;;;;;;;9.10;3.35;;;12.60;98.80;;;;;;5102176;28;20050;-66
2022/10/11 01:52:02;;;;;;;8.52;2.53;;;12.60;98.80;;;;;;5093378;28;20118;-67
2022/10/11 01:54:46;;;;;;;8.07;2.33;;;12.60;98.80;;;;;;5110406;28;20035;-67
2022/10/11 01:57:39;;;;;;;8.35;2.40;;;12.60;98.90;;;;;;5114441;28;20062;-67
2022/10/11 02:00:19;;;;;;;8.15;2.47;;;12.60;98.90;;;;;;5101006;28;20116;-67
2022/10/11 02:03:04;;;;;;;5.00;2.13;;;12.50;98.90;;;;;;5080326;28;20023;-67
2022/10/11 02:05:45;;;;;;;6.30;2.38;;;12.50;98.90;;;;;;5101121;28;20104;-67
2022/10/11 02:08:32;;;;;;;7.85;2.35;;;12.50;99.00;;;;;;5108123;28;20112;-66
2022/10/11 02:11:16;;;;;;;7.22;2.60;;;12.50;99.10;;;;;;5095074;28;20059;-67
2022/10/11 02:14:04;;;;;;;5.90;2.47;;;12.50;99.10;;;;;;5093918;28;20036;-67
2022/10/11 02:16:47;;;;;;;10.70;2.70;;;12.40;99.10;;;;;;5094022;28;20439;-66
2022/10/11 02:19:17;;;;;;;8.45;2.30;;;12.40;99.20;;;;;;5079475;28;20028;-66
2022/10/11 02:21:46;;;;;;;11.18;2.72;;;12.40;99.20;;;;;;5094624;28;20120;-66
2022/10/11 02:24:17;;;;;;;14.30;3.08;;;12.40;99.30;;;;;;5080453;28;20403;-67
2022/10/11 02:26:51;;;;;;;7.43;2.20;;;12.40;99.30;;;;;;5102722;28;20039;-67
2022/10/11 02:29:18;;;;;;;9.10;2.45;;;12.40;99.30;;;;;;5079933;28;20073;-68
2022/10/11 02:31:45;;;;;;;7.57;2.33;;;12.40;99.30;;;;;;5094054;28;20117;-66
2022/10/11 02:34:24;;;;;;;6.85;2.15;;;12.30;99.30;;;;;;5108297;28;20032;-66
2022/10/11 02:37:13;;;;;;;8.90;3.05;;;12.30;99.40;;;;;;5105078;28;20032;-66
2022/10/11 02:39:59;;;;;;;9.48;2.22;;;12.30;99.40;;;;;;5104479;28;20032;-66
2022/10/11 02:42:31;;;;;;;11.88;2.35;;;12.30;99.40;;;;;;5094591;28;20050;-66
2022/10/11 02:45:03;;;;;;;6.78;2.47;;;12.30;99.40;;;;;;5093803;28;20060;-66
2022/10/11 02:47:30;;;;;;;6.47;2.30;;;12.30;99.40;;;;;;5097290;28;20012;-66
2022/10/11 02:50:00;;;;;;;9.82;2.53;;;12.20;99.40;;;;;;5080177;28;20103;-66
2022/10/11 02:52:28;;;;;;;8.20;2.90;;;12.20;99.40;;;;;;5095546;28;20042;-66
2022/10/11 02:54:54;;;;;;;7.75;2.22;;;12.20;99.40;;;;;;5074382;28;20090;-66
2022/10/11 02:57:20;;;;;;;8.20;2.50;;;12.20;99.40;;;;;;5102264;28;20466;-67
2022/10/11 02:59:45;;;;;;;9.70;2.45;;;12.20;99.40;;;;;;5098767;28;20012;-67
2022/10/11 03:02:11;;;;;;;6.90;2.65;;;12.20;99.40;;;;;;5104519;28;20588;-67
2022/10/11 03:04:36;;;;;;;6.97;3.00;;;12.20;99.40;;;;;;5114341;28;20028;-66
2022/10/11 03:07:02;;;;;;;5.95;2.55;;;12.10;99.40;;;;;;5102582;28;20482;-67
2022/10/11 03:09:28;;;;;;;11.25;2.67;;;12.10;99.50;;;;;;5114805;28;20020;-66
2022/10/11 03:11:53;;;;;;;8.93;2.65;;;12.10;99.50;;;;;;5105251;28;20073;-67
2022/10/11 03:14:19;;;;;;;12.82;2.72;;;12.10;99.50;;;;;;5098464;28;20032;-66
2022/10/11 03:16:45;;;;;;;7.90;2.63;;;12.10;99.60;;;;;;5093625;28;20024;-66
2022/10/11 03:19:12;;;;;;;6.10;2.30;;;12.10;99.60;;;;;;5111308;28;20401;-66
2022/10/11 03:21:38;;;;;;;6.22;1.98;;;12.10;99.60;;;;;;5104252;28;20111;-66
2022/10/11 03:24:04;;;;;;;7.88;2.78;;;12.10;99.60;;;;;;5110302;28;20110;-67
2022/10/11 03:26:29;;;;;;;7.22;2.53;;;12.10;99.60;;;;;;5101672;28;20032;-67
2022/10/11 03:28:55;;;;;;;12.00;2.80;;;12.10;99.70;;;;;;5104478;28;20028;-67
2022/10/11 03:31:22;;;;;;;12.23;2.90;;;12.10;99.70;;;;;;5105171;28;20639;-67
2022/10/11 03:33:48;;;;;;;12.02;3.13;;;12.00;99.70;;;;;;5073710;28;20068;-67
2022/10/11 03:36:14;;;;;;;9.52;2.28;;;12.00;99.80;;;;;;5090195;28;20443;-66
2022/10/11 03:38:39;;;;;;;9.25;2.35;;;12.00;99.80;;;;;;5098804;28;20529;-66
2022/10/11 03:41:05;;;;;;;8.43;2.72;;;12.00;99.80;;;;;;5092366;28;20044;-66
2022/10/11 03:43:31;;;;;;;10.48;3.95;;;12.00;99.80;;;;;;5102198;28;20407;-66
2022/10/11 03:45:57;;;;;;;7.68;3.17;;;12.00;99.90;;;;;;5104832;28;20035;-66
2022/10/11 03:48:22;;;;;;;8.02;2.47;;;12.00;99.90;;;;;;5101479;28;20523;-66
2022/10/11 03:50:48;;;;;;;11.52;2.70;;;12.00;99.90;;;;;;5083667;28;20028;-66
2022/10/11 03:53:14;;;;;;;8.00;2.53;;;11.90;99.90;;;;;;5087357;28;20128;-66
2022/10/11 03:55:40;;;;;;;8.60;2.70;;;11.90;99.90;;;;;;5093335;28;20020;-66
2022/10/11 03:58:06;;;;;;;9.13;2.95;;;11.90;99.90;;;;;;5099902;28;20032;-66
2022/10/11 04:00:33;;;;;;;7.47;2.80;;;11.90;99.90;;;;;;5095726;28;20030;-66
2022/10/11 04:02:59;;;;;;;9.55;2.65;;;11.90;99.90;;;;;;5106030;28;20475;-66
2022/10/11 04:05:25;;;;;;;7.57;2.50;;;11.90;99.90;;;;;;5113432;28;20028;-66
2022/10/11 04:07:50;;;;;;;8.77;2.78;;;11.90;99.90;;;;;;5107960;28;20081;-66
2022/10/11 04:10:16;;;;;;;8.93;2.35;;;11.80;99.90;;;;;;5097348;28;20015;-66
2022/10/11 04:12:42;;;;;;;6.97;3.17;;;11.80;99.90;;;;;;5092693;28;20032;-66
2022/10/11 04:15:12;;;;;;;4.93;2.40;;;11.80;99.90;;;;;;5086335;28;20024;-66
2022/10/11 04:17:38;;;;;;;8.77;2.80;;;11.80;99.90;;;;;;5106160;28;20036;-66
2022/10/11 04:20:04;;;;;;;13.82;3.20;;;11.80;99.90;;;;;;5092268;28;20388;-66
2022/10/11 04:22:31;;;;;;;9.68;3.03;;;11.80;99.90;;;;;;5098897;28;20038;-66
2022/10/11 04:24:57;;;;;;;8.13;2.60;;;11.80;99.90;;;;;;5112247;28;20060;-66
2022/10/11 04:27:22;;;;;;;9.88;3.47;;;11.80;99.90;;;;;;5100508;28;20129;-66
2022/10/11 04:29:48;;;;;;;10.35;3.33;;;11.80;99.90;;;;;;5099466;28;20084;-66
2022/10/11 04:32:14;;;;;;;11.73;3.13;;;11.80;99.90;;;;;;5097861;28;20051;-65
2022/10/11 04:34:39;;;;;;;8.43;3.42;;;11.80;99.90;;;;;;5093066;28;20024;-66
2022/10/11 04:37:06;;;;;;;8.77;3.50;;;11.70;99.90;;;;;;5091921;28;20028;-66
2022/10/11 04:39:32;;;;;;;7.60;3.03;;;11.70;99.90;;;;;;5091629;28;20115;-66
2022/10/11 04:41:57;;;;;;;7.00;3.00;;;11.70;99.90;;;;;;5109223;28;21435;-66
2022/10/11 04:44:23;;;;;;;9.95;3.70;;;11.70;99.90;;;;;;5091938;28;20540;-66
2022/10/11 04:46:48;;;;;;;6.78;3.25;;;11.70;99.90;;;;;;5091846;28;20038;-66
2022/10/11 04:49:14;;;;;;;10.75;3.35;;;11.70;99.90;;;;;;5100861;28;20038;-65
2022/10/11 04:51:40;;;;;;;10.07;3.45;;;11.70;99.90;;;;;;5093609;28;20035;-65
2022/10/11 04:54:06;;;;;;;11.50;4.55;;;11.70;99.90;;;;;;5101810;28;20036;-66
2022/10/11 04:56:32;;;;;;;11.25;3.65;;;11.60;99.90;;;;;;5093615;28;20024;-66
2022/10/11 04:58:57;;;;;;;7.55;3.33;;;11.60;99.90;;;;;;5092370;28;20036;-66
2022/10/11 05:01:23;;;;;;;10.93;3.28;;;11.60;99.90;;;;;;5108659;28;20031;-66
2022/10/11 05:03:48;;;;;;;10.30;3.58;;;11.60;99.90;;;;;;5108902;28;20030;-67
2022/10/11 05:06:14;;;;;;;10.02;3.75;;;11.60;99.90;;;;;;5111191;28;20027;-66
2022/10/11 05:08:40;;;;;;;9.77;3.25;;;11.50;99.90;;;;;;5108046;28;20512;-66
2022/10/11 05:11:10;;;;;;;9.98;3.45;;;11.50;99.90;;;;;;5101763;28;20080;-66
2022/10/11 05:13:36;;;;;;;14.55;3.90;;;11.50;99.90;;;;;;5092385;28;20116;-66
2022/10/11 05:16:03;;;;;;;6.85;2.97;;;11.50;99.90;;;;;;5089792;28;20024;-66
2022/10/11 05:18:29;;;;;;;9.30;3.55;;;11.50;99.90;;;;;;5103569;28;20114;-66
2022/10/11 05:21:19;;;;;;;7.82;3.58;;;11.50;99.90;;;;;;5108634;28;20047;-65
2022/10/11 05:23:46;;;;;;;6.25;3.15;;;11.50;99.90;;;;;;5096606;28;20088;-66
2022/10/11 05:26:12;;;;;;;8.05;3.28;;;11.50;99.90;;;;;;5108101;28;20468;-66
2022/10/11 05:28:37;;;;;;;7.97;3.28;;;11.50;99.90;;;;;;5108775;28;20051;-66
2022/10/11 05:31:03;;;;;;;9.43;3.60;;;11.50;99.90;;;;;;5107951;28;20493;-66
2022/10/11 05:33:29;;;;;;;9.35;3.90;;;11.50;99.90;;;;;;5102809;28;20055;-66
2022/10/11 05:35:54;;;;;;;12.65;3.78;;;11.50;99.90;;;;;;5109564;28;20027;-66
2022/10/11 05:38:20;;;;;;;9.57;3.30;;;11.50;99.90;;;;;;5097085;28;20035;-67
2022/10/11 05:40:46;;;;;;;10.15;3.88;;;11.50;99.90;;;;;;5111946;28;20062;-66
2022/10/11 05:43:11;;;;;;;11.35;4.30;;;11.50;99.90;;;;;;5093071;28;20028;-65
2022/10/11 05:45:38;;;;;;;13.20;4.20;;;11.50;99.90;;;;;;5110481;28;20028;-66
2022/10/11 05:48:05;;;;;;;10.75;3.80;;;11.50;99.90;;;;;;5086099;28;20032;-68
2022/10/11 05:50:32;;;;;;;9.43;3.60;;;11.50;99.90;;;;;;5083056;28;20027;-67
2022/10/11 05:52:58;;;;;;;11.05;3.92;;;11.40;99.90;;;;;;5084388;28;20028;-67
2022/10/11 05:55:24;;;;;;;8.10;3.38;;;11.50;99.90;;;;;;5090126;28;20032;-68
2022/10/11 05:57:54;;;;;;;6.75;3.63;;;11.50;99.90;;;;;;5091922;28;20030;-69
2022/10/11 06:00:20;;;;;;;13.35;4.60;;;11.50;99.90;;;;;;5097014;28;20113;-69
2022/10/11 06:02:45;;;;;;;9.25;3.50;;;11.50;99.90;;;;;;5096045;28;20085;-68
2022/10/11 06:05:11;;;;;;;12.23;3.70;;;11.60;99.90;;;;;;5092847;28;20090;-68
2022/10/11 06:07:38;;;;;;;11.73;4.40;;;11.50;99.90;;;;;;5094262;28;20024;-68
2022/10/11 06:10:05;;;;;;;8.25;4.00;;;11.60;99.90;;;;;;5095426;28;20074;-69
2022/10/11 06:12:32;;;;;;;14.30;4.95;;;11.60;99.90;;;;;;5094055;28;20032;-68
2022/10/11 06:14:57;;;;;;;13.20;6.38;;;11.50;99.90;;;;;;5087999;28;20069;-68
2022/10/11 06:17:23;;;;;;;6.97;4.40;;;11.60;99.90;;;;;;5090028;28;20020;-69
2022/10/11 06:19:49;;;;;;;7.25;3.90;;;11.60;99.90;;;;;;5099155;28;20026;-69
2022/10/11 06:22:17;;;;;;;10.75;4.00;;;11.60;99.90;;;;;;5091242;28;20070;-69
2022/10/11 06:24:43;;;;;;;11.35;4.30;;;11.60;99.90;;;;;;5111799;28;20478;-69
2022/10/11 06:27:09;;;;;;;13.32;4.38;;;11.60;99.90;;;;;;5098971;28;20052;-69
2022/10/11 06:29:35;;;;;;;12.75;4.07;;;11.60;99.90;;;;;;5108629;28;20028;-69
2022/10/11 06:32:01;;;;;;;8.93;4.80;;;11.70;99.90;;;;;;5089844;28;20127;-69
2022/10/11 06:34:27;;;;;;;10.32;4.18;;;11.70;99.90;;;;;;5093486;28;20119;-69
2022/10/11 06:36:52;;;;;;;10.38;4.82;;;11.70;99.90;;;;;;5094836;28;20028;-68
2022/10/11 06:39:18;;;;;;;8.45;4.35;;;11.70;99.90;;;;;;5107787;28;20106;-68
2022/10/11 06:41:44;;;;;;;8.30;4.35;;;11.80;99.90;;;;;;5101149;28;20024;-69
2022/10/11 06:44:11;;;;;;;9.98;4.53;;;11.80;99.90;;;;;;5093803;28;20039;-69
2022/10/11 06:46:37;;;;;;;13.75;5.68;;;11.80;99.90;;;;;;5076754;28;20100;-69
2022/10/11 06:49:02;;;;;;;14.00;4.13;;;11.90;99.90;;;;;;5091679;28;20132;-69
2022/10/11 06:51:29;;;;;;;13.65;4.70;;;11.90;99.90;;;;;;5093961;28;20028;-69
2022/10/11 06:53:57;;;;;;;9.15;4.53;;;11.90;99.90;;;;;;5091400;28;20036;-69
2022/10/11 06:56:25;;;;;;;6.78;4.38;;;11.90;99.90;;;;;;5095208;28;20027;-69
2022/10/11 06:58:53;;;;;;;13.93;4.07;;;11.90;99.90;;;;;;5103409;28;20027;-68
2022/10/11 07:01:20;;;;;;;7.65;4.40;;;11.90;99.90;;;;;;5090359;28;20032;-69
2022/10/11 07:03:46;;;;;;;7.20;3.95;;;12.00;99.90;;;;;;5109248;28;20031;-68
2022/10/11 07:06:16;;;;;;;13.55;4.80;;;12.00;99.90;;;;;;5092114;28;20032;-68
2022/10/11 07:08:41;;;;;;;9.65;3.80;;;12.10;99.90;;;;;;5093863;28;20024;-68
2022/10/11 07:11:14;;;;;;;10.13;4.05;;;12.10;99.90;;;;;;5102671;28;20023;-68
2022/10/11 07:13:40;;;;;;;16.90;5.95;;;12.10;99.90;;;;;;5089455;28;20040;-67
2022/10/11 07:16:09;;;;;;;7.20;3.95;;;12.20;99.90;;;;;;5099069;28;20031;-69
2022/10/11 07:18:35;;;;;;;8.02;4.82;;;12.10;99.90;;;;;;5093410;28;20099;-71
2022/10/11 07:21:05;;;;;;;8.43;3.53;;;12.20;99.90;;;;;;5095018;28;20143;-70
2022/10/11 07:23:32;;;;;;;8.73;3.95;;;12.20;99.90;;;;;;5092558;28;20522;-72
2022/10/11 07:25:59;;;;;;;11.27;4.05;;;12.20;99.90;;;;;;5100269;28;20474;-69
2022/10/11 07:28:26;;;;;;;10.10;3.83;;;12.30;99.90;;;;;;5093188;28;20409;-68
2022/10/11 07:30:51;;;;;;;9.57;4.00;;;12.30;99.90;;;;;;5096900;28;20026;-67
2022/10/11 07:33:17;;;;;;;11.80;4.22;;;12.30;99.90;;;;;;5094834;28;20048;-67
2022/10/11 07:35:43;;;;;;;12.45;4.18;;;12.40;99.90;;;;;;5092811;28;20039;-67
2022/10/11 07:38:09;;;;;;;10.23;4.43;;;12.40;99.90;;;;;;5099045;28;20028;-67
2022/10/11 07:40:41;;;;;;;12.32;3.83;;;12.40;99.90;;;;;;5103014;28;20070;-67
2022/10/11 07:43:07;;;;;;;8.80;3.72;;;12.50;99.90;;;;;;5092398;28;20035;-67
2022/10/11 07:45:33;;;;;;;9.38;4.03;;;12.50;99.90;;;;;;5102250;28;20107;-67
2022/10/11 07:47:58;;;;;;;11.07;4.30;;;12.50;99.90;;;;;;5105710;28;20020;-68
2022/10/11 07:50:25;;;;;;;14.57;4.45;;;12.60;99.90;;;;;;5087258;28;20090;-68
2022/10/11 07:52:50;;;;;;;12.40;3.80;;;12.60;99.90;;;;;;5095624;28;20110;-68
2022/10/11 07:55:16;;;;;;;8.45;3.60;;;12.60;99.90;;;;;;5091360;28;20112;-67
2022/10/11 07:57:42;;;;;;;9.07;3.55;;;12.60;99.90;;;;;;5095118;28;20089;-67
2022/10/11 08:00:08;;;;;;;10.80;4.28;;;12.60;99.90;;;;;;5092180;28;20033;-67
2022/10/11 08:02:34;;;;;;;13.65;3.42;;;12.70;99.90;;;;;;5078144;28;20024;-67
2022/10/11 08:04:59;;;;;;;14.25;3.95;;;12.70;99.90;;;;;;5103797;28;20027;-67
2022/10/11 08:07:27;;;;;;;11.35;3.70;;;12.70;99.90;;;;;;5095755;28;20024;-67
2022/10/11 08:09:52;;;;;;;13.90;4.28;;;12.70;99.90;;;;;;5074686;28;20024;-66
2022/10/11 08:12:18;;;;;;;8.13;3.88;;;12.70;99.90;;;;;;5092902;28;20552;-66
2022/10/11 08:14:43;;;;;;;6.88;3.28;;;12.70;99.90;;;;;;5092267;28;20024;-66
2022/10/11 08:17:09;;;;;;;7.35;3.47;;;12.80;99.90;;;;;;5091892;28;20024;-67
2022/10/11 08:19:34;;;;;;;10.45;4.22;;;12.80;99.90;;;;;;5090390;28;20024;-67
2022/10/11 08:22:00;;;;;;;9.40;3.28;;;12.80;99.90;;;;;;5110235;27;20407;-67
2022/10/11 08:24:25;;;;;;;11.43;3.38;;;12.90;99.90;;;;;;5090972;28;20020;-67
2022/10/11 08:26:51;;;;;;;13.35;4.05;;;12.90;99.90;;;;;;5093285;28;20017;-67
2022/10/11 08:29:20;;;;;;;12.68;3.85;;;13.00;99.90;;;;;;5102307;28;20475;-67
2022/10/11 08:31:45;;;;;;;10.60;4.10;;;13.00;99.90;;;;;;5091615;28;20198;-67
2022/10/11 08:34:11;;;;;;;11.20;3.92;;;13.00;99.90;;;;;;5100001;28;20486;-67
2022/10/11 08:36:37;;;;;;;7.97;3.70;;;13.00;99.80;;;;;;5096051;28;20032;-67
2022/10/11 08:39:05;;;;;;;14.27;4.07;;;13.10;99.70;;;;;;5101440;28;20043;-67
2022/10/11 08:41:55;;;;;;;8.57;3.70;;;13.00;99.60;;;;;;5096128;28;20059;-66
2022/10/11 08:44:43;;;;;;;8.30;3.30;;;13.10;99.60;;;;;;5091012;28;20475;-67
2022/10/11 08:47:42;;;;;;;16.98;3.97;;;13.10;99.60;;;;;;5092458;28;20043;-67
2022/10/11 08:50:21;;;;;;;8.07;3.08;;;13.20;99.60;;;;;;5086185;28;20031;-67
2022/10/11 08:53:02;;;;;;;11.73;5.00;;;13.20;99.50;;;;;;5107104;28;20040;-67
2022/10/11 08:55:38;;;;;;;9.60;3.47;;;13.30;99.40;;;;;;5109297;28;20032;-67
2022/10/11 08:58:04;;;;;;;7.70;3.03;;;13.30;99.30;;;;;;5091628;28;20036;-67
2022/10/11 09:00:34;;;;;;;9.18;2.90;;;13.40;99.30;;;;;;5090666;28;20039;-67
2022/10/11 09:03:20;;;;;;;9.30;3.30;;;13.40;99.10;;;;;;5094583;28;20123;-66
2022/10/11 09:06:10;;;;;;;5.10;2.75;;;13.40;99.00;;;;;;5095979;28;20020;-67
2022/10/11 09:08:59;;;;;;;8.77;2.70;;;13.50;98.80;;;;;;5092237;28;20032;-66
2022/10/11 09:11:34;;;;;;;9.40;3.80;;;13.50;98.70;;;;;;5091384;28;20035;-67
2022/10/11 09:14:05;;;;;;;;;;;13.50;98.70;;;;;;5092481;28;20036;-67
2022/10/11 09:16:55;;;;;;;6.45;2.90;;;13.50;98.70;;;;;;5087676;28;20355;-66
2022/10/11 09:20:06;;;;;;;9.07;2.65;;;13.60;98.70;;;;;;5090091;28;20043;-67
2022/10/11 09:22:58;;;;;;;8.88;2.97;;;13.60;98.50;;;;;;5072351;28;20406;-67
2022/10/11 09:25:36;;;;;;;12.60;3.42;;;13.70;98.40;;;;;;5090499;28;20107;-67
2022/10/11 09:28:02;;;;;;;11.77;2.97;;;13.70;98.50;;;;;;5109796;28;20110;-67
2022/10/11 09:30:28;;;;;;;9.95;3.30;;;13.80;98.60;;;;;;5102679;28;20111;-67
2022/10/11 09:33:07;;;;;;;8.43;3.58;;;13.80;98.40;;;;;;5112936;28;20398;-66
2022/10/11 09:35:41;;;;;;;6.93;2.60;;;13.90;98.20;;;;;;5092464;28;20028;-66
2022/10/11 09:38:25;;;;;;;8.35;2.90;;;14.00;98.20;;;;;;5094077;28;20024;-67
2022/10/11 09:41:26;;;;;;;13.48;4.47;;;14.00;98.00;;;;;;5089506;28;20039;-66
2022/10/11 09:43:51;;;;;;;8.38;3.00;;;14.10;98.00;;;;;;5089846;28;20066;-67
2022/10/11 09:46:34;;;;;;;10.32;2.92;;;14.10;97.90;;;;;;5089645;28;20032;-67
2022/10/11 09:49:02;;;;;;;6.65;2.65;;;14.20;98.00;;;;;;5091203;28;20035;-67
2022/10/11 09:51:29;;;;;;;9.57;2.75;;;14.20;97.70;;;;;;5091642;28;20047;-67
2022/10/11 09:53:57;;;;;;;6.28;2.45;;;14.30;97.70;;;;;;5104121;28;20437;-66
2022/10/11 09:56:25;;;;;;;9.15;3.17;;;14.30;97.60;;;;;;5094266;28;20089;-66
2022/10/11 09:59:12;;;;;;;11.90;2.67;;;14.40;97.50;;;;;;5104851;28;20193;-66
2022/10/11 10:01:38;;;;;;;10.48;2.95;;;14.40;97.10;;;;;;5095318;28;20105;-67
2022/10/11 10:04:17;;;;;;;6.40;2.38;;;14.40;97.00;;;;;;5101334;28;20474;-67
2022/10/11 10:06:43;;;;;;;9.23;2.83;;;14.40;96.30;;;;;;5095632;28;20116;-68
2022/10/11 10:09:29;;;;;;;13.07;3.05;;;14.50;96.50;;;;;;5101561;28;20477;-67
2022/10/11 10:11:57;;;;;;;8.63;3.38;;;14.60;96.50;;;;;;5098116;28;20028;-67
2022/10/11 10:14:28;;;;;;;7.90;2.70;;;14.60;96.50;;;;;;5100375;28;20040;-67
2022/10/11 10:16:59;;;;;;;7.18;2.50;;;14.70;96.50;;;;;;5093237;28;20051;-67
2022/10/11 10:19:25;;;;;;;8.30;2.22;;;14.80;96.50;;;;;;5088816;28;20098;-67
2022/10/11 10:21:54;;;;;;;7.20;2.72;;;14.80;96.30;;;;;;5077373;28;20471;-67
2022/10/11 10:24:39;;;;;;;11.93;3.15;;;14.90;96.10;;;;;;5080481;28;20016;-66
2022/10/11 10:27:28;;;;;;;7.00;2.42;;;15.00;96.00;;;;;;5083062;28;20032;-67
2022/10/11 10:30:09;;;;;;;7.05;2.58;;;14.90;95.30;;;;;;5105065;28;20023;-67
2022/10/11 10:33:00;;;;;;;6.15;2.47;;;15.00;95.30;;;;;;5091995;28;20052;-67
2022/10/11 10:35:26;;;;;;;10.48;2.80;;;15.00;95.30;;;;;;5089307;28;20024;-67
2022/10/11 10:38:01;;;;;;;6.90;2.95;;;15.10;95.20;;;;;;5094068;28;20032;-66
2022/10/11 10:40:36;;;;;;;8.13;2.55;;;15.20;95.20;;;;;;5099005;28;20024;-66
2022/10/11 10:43:02;;;;;;;5.78;2.63;;;15.20;94.90;;;;;;5102144;28;20028;-67
2022/10/11 10:45:40;;;;;;;8.20;3.25;;;15.30;94.80;;;;;;5093639;28;20467;-67
2022/10/11 10:48:22;;;;;;;8.32;2.80;;;15.30;94.40;;;;;;5092042;28;23589;-67
2022/10/11 10:50:54;;;;;;;4.93;2.03;;;15.40;94.60;;;;;;5076033;28;20024;-68
2022/10/11 10:53:37;;;;;;;9.65;2.35;;;15.50;94.30;;;;;;5102361;28;20471;-67
2022/10/11 10:56:12;;;;;;;14.23;3.10;;;15.60;94.20;;;;;;5092755;28;20106;-67
2022/10/11 10:58:40;;;;;;;5.45;2.55;;;15.60;94.10;;;;;;5096929;28;20032;-67
2022/10/11 11:01:28;;;;;;;7.63;2.55;;;15.80;94.10;;;;;;5093610;28;20383;-70
2022/10/11 11:04:34;;;;;;;7.25;2.25;;;15.80;93.90;;;;;;5091066;28;20694;-69
2022/10/11 11:07:08;;;;;;;;;;;15.90;93.80;;;;;;5096743;28;20024;-68
2022/10/11 11:10:02;;;;;;;6.28;2.00;;;16.00;94.20;;;;;;5092844;28;20313;-68
2022/10/11 11:12:47;;;;;;;8.90;2.90;;;16.00;93.60;;;;;;5091645;28;20423;-67
2022/10/11 11:15:23;;;;;;;10.80;2.55;;;16.00;93.30;;;;;;5082915;28;20524;-67
2022/10/11 11:18:09;;;;;;;11.23;2.45;;;16.10;93.00;;;;;;5088075;28;20020;-67
2022/10/11 11:21:00;;;;;;;8.52;2.53;;;16.10;92.40;;;;;;5092025;28;20364;-68
2022/10/11 11:23:36;;;;;;;5.43;2.08;;;16.00;92.20;;;;;;5100860;28;20024;-68
2022/10/11 11:26:28;;;;;;;8.05;2.92;;;16.10;92.00;;;;;;5092754;28;20379;-68
2022/10/11 11:29:04;;;;;;;7.45;2.63;;;16.10;92.10;;;;;;5073883;28;20113;-68
2022/10/11 11:31:45;;;;;;;7.40;2.38;;;16.10;92.00;;;;;;5080369;28;20550;-69
2022/10/11 11:34:35;;;;;;;8.18;2.70;;;16.20;91.80;;;;;;5094395;28;20068;-69
2022/10/11 11:37:08;;;;;;;11.05;2.75;;;16.10;91.70;;;;;;5095546;28;20631;-68
2022/10/11 11:39:47;;;;;;;15.25;2.47;;;16.10;91.50;;;;;;5112094;28;20123;-69
2022/10/11 11:42:28;;;;;;;7.63;2.75;;;16.20;91.50;;;;;;5098141;28;20505;-68
2022/10/11 11:44:54;;;;;;;10.25;2.58;;;16.20;91.60;;;;;;5084892;28;20115;-68
2022/10/11 11:47:30;;;;;;;8.88;3.20;;;16.30;91.60;;;;;;5091744;28;20517;-69
2022/10/11 11:50:21;;;;;;;10.88;2.90;;;16.40;91.30;;;;;;5107235;28;20028;-69
2022/10/11 11:53:03;;;;;;;6.80;3.33;;;16.50;91.20;;;;;;5099573;28;20036;-68
2022/10/11 11:55:32;;;;;;;6.18;2.40;;;16.60;91.60;;;;;;5114389;28;20028;-69
2022/10/11 11:58:41;;;;;;;6.97;2.40;;;16.70;91.20;;;;;;5104040;28;20038;-69
2022/10/11 12:01:38;;;;;;;5.13;2.10;;;16.70;91.20;;;;;;5106254;28;20529;-68
2022/10/11 12:04:14;;;;;;;12.27;3.10;;;16.70;91.20;;;;;;5073282;28;20031;-68
2022/10/11 12:06:40;;;;;;;6.57;2.78;;;16.70;91.00;;;;;;5086119;28;20090;-67
2022/10/11 12:09:15;;;;;;;5.85;2.05;;;16.70;90.80;;;;;;5102537;28;20043;-68
2022/10/11 12:12:04;;;;;;;5.43;2.15;;;16.70;90.60;;;;;;5083129;28;20414;-68
2022/10/11 12:14:37;;;;;;;9.43;2.95;;;16.70;90.80;;;;;;5093947;28;20079;-67
2022/10/11 12:17:16;;;;;;;10.32;2.45;;;16.70;90.60;;;;;;5093064;28;20023;-69
2022/10/11 12:20:13;;;;;;;8.98;2.40;;;16.70;90.60;;;;;;5090931;28;20089;-68
2022/10/11 12:22:59;;;;;;;4.55;2.35;;;16.70;90.30;;;;;;5090445;28;20035;-68
2022/10/11 12:25:25;;;;;;;11.88;3.20;;;16.70;90.70;;;;;;5071135;28;20027;-68
2022/10/11 12:27:53;;;;;;;4.10;1.85;;;16.80;90.80;;;;;;5091899;28;20073;-69
2022/10/11 12:30:45;;;;;;;7.72;2.10;;;16.80;90.40;;;;;;5092285;28;20032;-68
2022/10/11 12:33:20;;;;;;;8.35;2.67;;;16.90;89.50;;;;;;5091139;28;20140;-68
2022/10/11 12:35:52;;;;;;;8.90;2.50;;;16.90;89.60;;;;;;5079189;28;20066;-68
2022/10/11 12:38:20;;;;;;;8.63;1.75;;;17.00;89.50;;;;;;5075315;28;20361;-67
2022/10/11 12:40:48;;;;;;;8.63;2.28;;;17.00;89.40;;;;;;5083262;28;20073;-68
2022/10/11 12:43:14;;;;;;;7.82;2.17;;;17.10;89.10;;;;;;5088770;28;20043;-69
2022/10/11 12:45:46;;;;;;;6.28;1.90;;;17.10;88.40;;;;;;5090091;28;20482;-68
2022/10/11 12:48:33;;;;;;;8.38;2.22;;;17.10;87.50;;;;;;5091433;28;20039;-68
2022/10/11 12:51:29;;;;;;;10.05;3.03;;;17.00;87.40;;;;;;5091580;28;20069;-69
2022/10/11 12:54:17;;;;;;;10.18;2.83;;;16.90;87.80;;;;;;5105090;28;20043;-68
2022/10/11 12:57:26;;;;;;;8.30;2.10;;;16.80;86.80;;;;;;5090143;28;20056;-69
2022/10/11 12:59:52;;;;;;;5.93;2.15;;;16.70;87.60;;;;;;5027494;28;20021;-68
2022/10/11 13:02:43;;;;;;;5.65;2.35;;;16.70;88.00;;;;;;5027573;28;20503;-68
2022/10/11 13:05:29;;;;;;;5.80;1.90;;;16.70;87.70;;;;;;5056125;28;20494;-69
2022/10/11 13:07:58;;;;;;;7.85;2.60;;;16.70;88.10;;;;;;5089801;28;20024;-69